OCE weather

Ocean City Municipal Airport
Ocean City, Maryland, United States

Public forecast

Using degrees Fahrenheit for public forecast. Weather courtesy of forecast.io.

Current aviation weather report (METAR) for Ocean City Municipal Airport

Retrieved 2019/10/21 22:08 UTC (11 minutes ago):

KOXB 212208Z AUTO 04005KT 5SM BR BKN009 OVC014 16/14 A3008 RMK AO2 CIG 007V012 T01560139

Closest aviation forecast (TAF) to Ocean City Municipal Airport

Closest forecast is Salisbury Ocean City Wicomico Regional Airport, 18.3 nm (33.9 km) W. Retrieved 2019/10/21 18:36 UTC (4 hours ago):

TAF KSBY 211733Z 2118/2218 VRB04KT P6SM BKN025 FM220000 00000KT P6SM OVC010 FM220600 00000KT P6SM OVC008 FM221500 16008KT P6SM BKN020